createdAt,value
2022-08-20T00:01:02.077Z,19.05
2022-08-20T00:03:33.137Z,17.98
2022-08-20T00:06:02.665Z,20.42
2022-08-20T00:08:31.317Z,18.63
2022-08-20T00:11:00.251Z,20.25
2022-08-20T00:13:30.838Z,20.40
2022-08-20T00:15:59.510Z,17.13
2022-08-20T00:18:28.010Z,22.40
2022-08-20T00:20:58.259Z,20.65
2022-08-20T00:23:27.109Z,19.25
2022-08-20T00:25:55.502Z,20.45
2022-08-20T00:28:24.069Z,25.73
2022-08-20T00:30:52.389Z,23.63
2022-08-20T00:33:22.377Z,27.35
2022-08-20T00:35:53.190Z,22.00
2022-08-20T00:38:23.030Z,23.42
2022-08-20T00:40:53.201Z,20.00
2022-08-20T00:43:30.840Z,23.33
2022-08-20T00:45:59.271Z,25.08
2022-08-20T00:48:28.951Z,24.40
2022-08-20T00:51:01.174Z,23.90
2022-08-20T00:53:31.114Z,21.90
2022-08-20T00:56:00.977Z,26.98
2022-08-20T00:58:30.267Z,24.67
2022-08-20T01:00:59.352Z,24.35
2022-08-20T01:03:27.656Z,22.15
2022-08-20T01:05:56.083Z,24.08
2022-08-20T01:08:26.594Z,25.80
2022-08-20T01:11:08.753Z,27.67
2022-08-20T01:13:38.807Z,26.48
2022-08-20T01:16:11.879Z,31.55
2022-08-20T01:18:40.471Z,26.40
2022-08-20T01:21:09.253Z,34.00
2022-08-20T01:23:39.880Z,34.83
2022-08-20T01:26:11.271Z,26.63
2022-08-20T01:28:40.975Z,25.05
2022-08-20T01:31:10.576Z,32.28
2022-08-20T01:33:39.071Z,35.05
2022-08-20T01:36:07.903Z,28.88
2022-08-20T01:38:36.485Z,30.50
2022-08-20T01:41:31.700Z,27.67
2022-08-20T01:44:01.369Z,27.70
2022-08-20T01:46:32.794Z,33.22
2022-08-20T01:49:13.480Z,32.08
2022-08-20T01:51:44.364Z,27.88
2022-08-20T01:54:13.705Z,32.50
2022-08-20T01:56:52.563Z,28.58
2022-08-20T01:59:22.238Z,27.13
2022-08-20T02:01:50.922Z,30.15
2022-08-20T02:04:19.273Z,31.70
2022-08-20T02:06:57.010Z,35.38
2022-08-20T02:09:25.868Z,30.20
2022-08-20T02:11:54.358Z,33.00
2022-08-20T02:14:24.040Z,31.38
2022-08-20T02:16:54.993Z,34.53
2022-08-20T02:19:25.207Z,30.13
2022-08-20T02:21:54.997Z,27.08
2022-08-20T02:24:23.442Z,28.98
2022-08-20T02:26:52.189Z,33.10
2022-08-20T02:29:20.606Z,34.45
2022-08-20T02:32:32.322Z,29.90
2022-08-20T02:34:38.664Z,28.80
2022-08-20T02:37:08.268Z,30.98
2022-08-20T02:39:36.936Z,34.10
2022-08-20T02:42:05.329Z,28.20
2022-08-20T02:44:33.680Z,29.30
2022-08-20T02:47:03.594Z,26.92
2022-08-20T02:49:31.917Z,26.90
2022-08-20T02:52:00.230Z,31.75
2022-08-20T02:54:29.340Z,30.63
2022-08-20T02:56:57.667Z,29.40
2022-08-20T02:59:26.061Z,30.83
2022-08-20T03:02:00.387Z,29.65
2022-08-20T03:04:31.123Z,29.20
2022-08-20T03:06:59.740Z,30.20
2022-08-20T03:09:29.187Z,27.30
2022-08-20T03:11:57.539Z,26.83
2022-08-20T03:14:25.903Z,28.02
2022-08-20T03:16:54.276Z,26.23
2022-08-20T03:19:23.074Z,26.25
2022-08-20T03:21:52.858Z,27.35
2022-08-20T03:24:21.233Z,30.42
2022-08-20T03:26:49.628Z,26.83
2022-08-20T03:29:17.931Z,29.70
2022-08-20T03:31:46.262Z,27.80
2022-08-20T03:34:14.615Z,27.25
2022-08-20T03:36:43.063Z,29.13
2022-08-20T03:39:13.419Z,26.95
2022-08-20T03:41:41.750Z,27.08
2022-08-20T03:44:10.238Z,27.45
2022-08-20T03:46:39.579Z,31.00
2022-08-20T03:49:08.142Z,21.95
2022-08-20T03:51:57.401Z,28.80
2022-08-20T03:54:27.374Z,23.77
2022-08-20T03:57:00.237Z,26.05
2022-08-20T03:59:28.611Z,26.77
2022-08-20T04:01:57.218Z,25.17
2022-08-20T04:04:25.599Z,24.58
2022-08-20T04:06:53.899Z,29.15
2022-08-20T04:09:22.251Z,23.85
2022-08-20T04:11:56.414Z,29.52
2022-08-20T04:14:24.696Z,33.92
2022-08-20T04:16:52.980Z,25.55
2022-08-20T04:19:21.865Z,23.90
2022-08-20T04:21:50.560Z,28.67
2022-08-20T04:24:22.623Z,27.95
2022-08-20T04:27:02.776Z,30.05
2022-08-20T04:29:32.114Z,29.13
2022-08-20T04:32:02.685Z,29.77
2022-08-20T04:34:33.913Z,26.92
2022-08-20T04:37:02.233Z,27.10
2022-08-20T04:39:30.716Z,22.90
2022-08-20T04:41:59.087Z,27.45
2022-08-20T04:44:28.843Z,24.85
2022-08-20T04:46:58.000Z,27.60
2022-08-20T04:49:26.445Z,30.33
2022-08-20T04:51:55.626Z,27.13
2022-08-20T04:54:23.910Z,26.27
2022-08-20T04:56:52.481Z,26.60
2022-08-20T04:59:20.889Z,26.98
2022-08-20T05:01:50.522Z,30.73
2022-08-20T05:04:18.883Z,27.67
2022-08-20T05:06:47.200Z,25.80
2022-08-20T05:09:15.506Z,28.83
2022-08-20T05:11:45.156Z,25.05
2022-08-20T05:14:13.934Z,25.75
2022-08-20T05:16:42.307Z,23.83
2022-08-20T05:19:13.827Z,28.30
2022-08-20T05:21:42.410Z,25.63
2022-08-20T05:24:12.155Z,22.90
2022-08-20T05:26:40.701Z,21.67
2022-08-20T05:29:09.021Z,24.25
2022-08-20T05:31:38.430Z,24.65
2022-08-20T05:34:09.803Z,24.02
2022-08-20T05:36:40.716Z,23.05
2022-08-20T05:39:09.335Z,23.27
2022-08-20T05:41:37.864Z,24.83
2022-08-20T05:44:09.976Z,24.77
2022-08-20T05:46:40.407Z,19.35
2022-08-20T05:49:08.755Z,21.17
2022-08-20T05:51:37.814Z,22.33
2022-08-20T05:54:08.134Z,22.55
2022-08-20T05:56:37.236Z,24.13
2022-08-20T05:59:06.644Z,24.55
2022-08-20T06:01:35.894Z,25.50
2022-08-20T06:04:22.075Z,27.58
2022-08-20T06:06:51.174Z,26.60
2022-08-20T06:09:30.906Z,25.63
2022-08-20T06:12:01.086Z,20.48
2022-08-20T06:14:29.390Z,22.50
2022-08-20T06:17:03.442Z,26.98
2022-08-20T06:19:33.669Z,27.27
2022-08-20T06:22:02.391Z,21.67
2022-08-20T06:24:38.451Z,20.05
2022-08-20T06:27:07.555Z,22.48
2022-08-20T06:29:37.555Z,20.15
2022-08-20T06:32:06.174Z,24.88
2022-08-20T06:34:34.516Z,19.00
2022-08-20T06:37:02.901Z,25.27
2022-08-20T06:39:31.363Z,24.75
2022-08-20T06:42:01.019Z,22.23
2022-08-20T06:44:29.364Z,22.98
2022-08-20T06:47:03.846Z,23.90
2022-08-20T06:49:35.289Z,23.63
2022-08-20T06:52:04.473Z,22.60
2022-08-20T06:54:34.344Z,24.92
2022-08-20T06:57:04.777Z,20.08
2022-08-20T06:59:33.131Z,19.13
2022-08-20T07:02:01.422Z,21.83
2022-08-20T07:04:29.779Z,20.60
2022-08-20T07:06:58.520Z,25.92
2022-08-20T07:09:27.376Z,26.75
2022-08-20T07:11:56.643Z,23.33
2022-08-20T07:14:27.117Z,22.17
2022-08-20T07:16:55.496Z,20.75
2022-08-20T07:19:24.372Z,19.33
2022-08-20T07:21:52.700Z,20.58
2022-08-20T07:24:21.027Z,21.52
2022-08-20T07:26:51.128Z,19.08
2022-08-20T07:29:21.725Z,19.02
2022-08-20T07:32:09.743Z,18.73
2022-08-20T07:34:38.081Z,19.00
2022-08-20T07:37:12.006Z,19.80
2022-08-20T07:39:40.410Z,16.35
2022-08-20T07:42:08.875Z,18.30
2022-08-20T07:44:39.318Z,18.35
2022-08-20T07:47:09.098Z,18.70
2022-08-20T07:49:39.373Z,19.23
2022-08-20T07:52:08.370Z,19.50
2022-08-20T07:54:38.126Z,16.73
2022-08-20T07:57:06.716Z,21.08
2022-08-20T07:59:34.997Z,17.50
2022-08-20T08:02:03.364Z,20.23
2022-08-20T08:04:33.023Z,18.80
2022-08-20T08:07:01.349Z,14.77
2022-08-20T08:09:30.302Z,17.70
2022-08-20T08:11:59.222Z,19.17
2022-08-20T08:14:29.391Z,19.27
2022-08-20T08:16:59.387Z,17.27
2022-08-20T08:19:29.409Z,18.00
2022-08-20T08:21:59.123Z,14.15
2022-08-20T08:24:28.616Z,17.45
2022-08-20T08:26:57.065Z,17.13
2022-08-20T08:29:25.411Z,17.60
2022-08-20T08:31:53.726Z,16.00
2022-08-20T08:34:24.999Z,18.30
2022-08-20T08:36:53.677Z,18.40
2022-08-20T08:39:25.874Z,18.83
2022-08-20T08:42:05.198Z,18.98
2022-08-20T08:44:35.966Z,15.32
2022-08-20T08:47:05.881Z,19.27
2022-08-20T08:49:37.441Z,17.77
2022-08-20T08:52:08.294Z,16.35
2022-08-20T08:54:38.998Z,18.50
2022-08-20T08:57:08.647Z,16.35
2022-08-20T08:59:52.105Z,18.92
2022-08-20T09:02:27.056Z,15.00
2022-08-20T09:04:56.588Z,20.45
2022-08-20T09:07:26.930Z,16.05
2022-08-20T09:09:56.626Z,18.42
2022-08-20T09:12:27.846Z,18.75
2022-08-20T09:14:56.556Z,15.50
2022-08-20T09:17:25.008Z,17.85
2022-08-20T09:19:53.388Z,18.08
2022-08-20T09:22:22.598Z,19.08
2022-08-20T09:24:51.279Z,16.42
2022-08-20T09:27:21.285Z,23.00
2022-08-20T09:29:50.298Z,19.83
2022-08-20T09:32:20.679Z,21.80
2022-08-20T09:34:51.980Z,21.83
2022-08-20T09:37:21.006Z,20.70
2022-08-20T09:39:49.396Z,20.52
2022-08-20T09:42:19.497Z,22.75
2022-08-20T09:44:49.230Z,21.08
2022-08-20T09:47:17.806Z,24.23
2022-08-20T09:49:46.313Z,18.83
2022-08-20T09:52:19.834Z,17.88
2022-08-20T09:54:48.165Z,23.85
2022-08-20T09:57:18.876Z,17.80
2022-08-20T09:59:49.928Z,19.23
2022-08-20T10:02:18.209Z,19.20
2022-08-20T10:04:46.585Z,19.60
2022-08-20T10:07:16.400Z,17.92
2022-08-20T10:09:44.871Z,12.90
2022-08-20T10:12:13.433Z,17.15
2022-08-20T10:14:41.734Z,13.85
2022-08-20T10:17:11.484Z,19.23
2022-08-20T10:19:39.859Z,16.95
2022-08-20T10:22:08.186Z,15.98
2022-08-20T10:24:36.864Z,17.60
2022-08-20T10:27:05.310Z,17.98
2022-08-20T10:29:33.753Z,15.73
2022-08-20T10:32:12.344Z,17.70
2022-08-20T10:34:41.147Z,15.73
2022-08-20T10:37:11.068Z,15.82
2022-08-20T10:39:39.635Z,17.25
2022-08-20T10:42:08.057Z,12.30
2022-08-20T10:44:36.401Z,11.65
2022-08-20T10:47:16.512Z,21.10
2022-08-20T10:49:45.059Z,15.25
2022-08-20T10:52:13.418Z,17.40
2022-08-20T10:54:42.304Z,19.02
2022-08-20T10:57:11.310Z,18.33
2022-08-20T10:59:40.448Z,18.58
2022-08-20T11:02:09.333Z,18.77
2022-08-20T11:04:40.953Z,16.90
2022-08-20T11:07:13.388Z,15.80
2022-08-20T11:09:41.721Z,17.63
2022-08-20T11:12:10.082Z,20.92
2022-08-20T11:14:38.511Z,16.23
2022-08-20T11:17:07.129Z,14.30
2022-08-20T11:19:35.905Z,17.77
2022-08-20T11:22:05.753Z,16.30
2022-08-20T11:24:34.060Z,20.42
2022-08-20T11:27:02.545Z,17.08
2022-08-20T11:29:33.940Z,14.43
2022-08-20T11:32:02.451Z,13.48
2022-08-20T11:34:30.801Z,20.10
2022-08-20T11:36:59.938Z,17.00
2022-08-20T11:39:29.683Z,18.35
2022-08-20T11:41:57.974Z,17.40
2022-08-20T11:44:26.280Z,17.73
2022-08-20T11:46:54.630Z,19.83
2022-08-20T11:49:22.911Z,17.48
2022-08-20T11:51:51.227Z,20.20
2022-08-20T11:54:19.508Z,21.15
2022-08-20T11:56:49.553Z,20.48
2022-08-20T11:59:18.339Z,18.58
2022-08-20T12:02:03.161Z,20.90
2022-08-20T12:04:35.320Z,20.65
2022-08-20T12:07:12.851Z,23.88
2022-08-20T12:09:50.771Z,19.63
2022-08-20T12:12:22.336Z,23.10
2022-08-20T12:14:50.672Z,20.80
2022-08-20T12:17:21.543Z,22.02
2022-08-20T12:19:49.895Z,20.80
2022-08-20T12:22:24.932Z,20.13
2022-08-20T12:24:53.722Z,18.13
2022-08-20T12:27:24.260Z,17.67
2022-08-20T12:29:53.416Z,19.17
2022-08-20T12:32:22.063Z,17.98
2022-08-20T12:34:50.427Z,18.95
2022-08-20T12:37:19.656Z,15.23
2022-08-20T12:39:50.024Z,18.30
2022-08-20T12:42:18.791Z,17.70
2022-08-20T12:44:48.465Z,20.45
2022-08-20T12:47:18.533Z,18.02
2022-08-20T12:49:48.303Z,16.30
2022-08-20T12:52:17.269Z,17.05
2022-08-20T12:54:45.840Z,22.52
2022-08-20T12:57:16.028Z,18.42
2022-08-20T12:59:44.570Z,20.75
2022-08-20T13:02:18.885Z,17.67
2022-08-20T13:04:47.608Z,17.15
2022-08-20T13:07:16.171Z,25.98
2022-08-20T13:09:44.790Z,22.40
2022-08-20T13:12:14.259Z,17.55
2022-08-20T13:14:42.839Z,20.33
2022-08-20T13:17:11.518Z,24.13
2022-08-20T13:19:41.225Z,25.02
2022-08-20T13:22:09.680Z,20.73
2022-08-20T13:24:38.551Z,27.70
2022-08-20T13:27:07.730Z,29.83
2022-08-20T13:29:36.463Z,29.33
2022-08-20T13:32:04.931Z,25.63
2022-08-20T13:34:33.228Z,26.60
2022-08-20T13:37:02.869Z,27.70
2022-08-20T13:39:31.224Z,19.17
2022-08-20T13:41:59.539Z,21.25
2022-08-20T13:44:32.752Z,25.23
2022-08-20T13:47:01.923Z,18.42
2022-08-20T13:49:33.788Z,16.63
2022-08-20T13:52:03.908Z,20.15
2022-08-20T13:54:32.228Z,17.85
2022-08-20T13:57:05.987Z,15.27
2022-08-20T13:59:36.515Z,15.25
2022-08-20T14:02:07.348Z,17.70
2022-08-20T14:04:36.108Z,16.80
2022-08-20T14:07:12.642Z,16.58
2022-08-20T14:09:41.175Z,22.42
2022-08-20T14:12:10.095Z,15.25
2022-08-20T14:14:38.454Z,21.23
2022-08-20T14:17:16.733Z,15.85
2022-08-20T14:19:45.202Z,26.77
2022-08-20T14:22:15.058Z,18.20
2022-08-20T14:24:43.358Z,14.85
2022-08-20T14:27:11.783Z,12.27
2022-08-20T14:29:41.334Z,18.77
2022-08-20T14:32:09.707Z,17.17
2022-08-20T14:34:38.379Z,19.15
2022-08-20T14:37:15.900Z,16.17
2022-08-20T14:39:44.795Z,18.77
2022-08-20T14:42:13.502Z,15.27
2022-08-20T14:44:42.134Z,18.98
2022-08-20T14:47:14.579Z,18.05
2022-08-20T14:49:43.297Z,19.50
2022-08-20T14:52:11.715Z,16.42
2022-08-20T14:54:41.594Z,21.50
2022-08-20T14:57:13.260Z,17.90
2022-08-20T14:59:41.867Z,18.02
2022-08-20T15:02:11.290Z,19.42
2022-08-20T15:04:39.755Z,21.85
2022-08-20T15:07:16.303Z,18.25
2022-08-20T15:09:46.043Z,16.85
2022-08-20T15:12:14.385Z,23.77
2022-08-20T15:14:42.668Z,19.25
2022-08-20T15:17:11.763Z,22.02
2022-08-20T15:19:40.160Z,20.40
2022-08-20T15:22:08.458Z,17.92
2022-08-20T15:24:36.758Z,19.02
2022-08-20T15:27:13.535Z,22.55
2022-08-20T15:29:41.865Z,23.70
2022-08-20T15:32:10.340Z,15.82
2022-08-20T15:34:38.826Z,14.50
2022-08-20T15:37:11.000Z,18.40
2022-08-20T15:39:40.193Z,19.80
2022-08-20T15:42:09.270Z,15.93
2022-08-20T15:44:39.281Z,13.80
2022-08-20T15:47:16.088Z,13.63
2022-08-20T15:49:44.966Z,13.57
2022-08-20T15:52:13.736Z,12.30
2022-08-20T15:54:42.162Z,15.23
2022-08-20T15:57:13.577Z,16.08
2022-08-20T15:59:48.634Z,14.18
2022-08-20T16:02:25.887Z,19.73
2022-08-20T16:05:01.446Z,13.25
2022-08-20T16:07:34.811Z,14.77
2022-08-20T16:10:07.551Z,14.80
2022-08-20T16:12:37.661Z,15.13
2022-08-20T16:15:10.468Z,14.68
2022-08-20T16:17:41.371Z,12.52
2022-08-20T16:20:12.218Z,14.93
2022-08-20T16:22:43.159Z,14.70
2022-08-20T16:25:11.578Z,12.23
2022-08-20T16:27:45.489Z,13.10
2022-08-20T16:30:21.480Z,18.08
2022-08-20T16:32:53.035Z,15.68
2022-08-20T16:35:29.851Z,13.57
2022-08-20T16:38:01.316Z,15.95
2022-08-20T16:40:32.516Z,15.05
2022-08-20T16:43:04.286Z,16.38
2022-08-20T16:45:35.542Z,15.63
2022-08-20T16:48:06.777Z,11.40
2022-08-20T16:50:36.566Z,17.85
2022-08-20T16:53:04.990Z,15.90
2022-08-20T16:55:33.326Z,16.52
2022-08-20T16:58:02.276Z,18.80
2022-08-20T17:00:35.371Z,16.20
2022-08-20T17:03:06.791Z,15.02
2022-08-20T17:05:45.157Z,14.20
2022-08-20T17:08:18.914Z,16.27
2022-08-20T17:10:55.431Z,17.23
2022-08-20T17:13:27.997Z,13.93
2022-08-20T17:15:57.836Z,18.63
2022-08-20T17:18:28.864Z,16.00
2022-08-20T17:21:01.690Z,16.48
2022-08-20T17:23:30.505Z,14.63
2022-08-20T17:25:59.947Z,16.80
2022-08-20T17:28:31.929Z,19.42
2022-08-20T17:31:03.021Z,19.35
2022-08-20T17:33:34.676Z,18.73
2022-08-20T17:36:06.564Z,22.48
2022-08-20T17:38:38.491Z,22.90
2022-08-20T17:41:12.825Z,21.85
2022-08-20T17:43:45.512Z,22.33
2022-08-20T17:46:17.338Z,23.85
2022-08-20T17:48:48.099Z,18.65
2022-08-20T17:51:17.692Z,22.42
2022-08-20T17:53:48.575Z,19.70
2022-08-20T17:56:20.726Z,24.13
2022-08-20T17:58:54.495Z,20.20
2022-08-20T18:01:23.534Z,19.90
2022-08-20T18:03:53.789Z,20.63
2022-08-20T18:06:30.485Z,22.25
2022-08-20T18:09:04.977Z,22.23
2022-08-20T18:11:35.326Z,20.85
2022-08-20T18:14:21.290Z,22.92
2022-08-20T18:16:55.935Z,18.27
2022-08-20T18:19:31.761Z,16.77
2022-08-20T18:22:06.088Z,18.80
2022-08-20T18:24:38.994Z,18.13
2022-08-20T18:27:09.444Z,20.02
2022-08-20T18:29:39.076Z,24.15
2022-08-20T18:32:09.103Z,19.38
2022-08-20T18:34:40.751Z,19.85
2022-08-20T18:37:22.409Z,19.58
2022-08-20T18:39:51.586Z,20.00
2022-08-20T18:42:27.131Z,18.65
2022-08-20T18:44:55.965Z,21.98
2022-08-20T18:47:26.350Z,19.48
2022-08-20T18:50:15.760Z,25.95
2022-08-20T18:52:46.472Z,22.40
2022-08-20T18:55:17.466Z,23.25
2022-08-20T18:57:54.728Z,21.25
2022-08-20T19:00:26.430Z,21.30
2022-08-20T19:02:59.508Z,24.10
2022-08-20T19:05:30.661Z,23.63
2022-08-20T19:08:00.103Z,24.00
2022-08-20T19:10:36.397Z,20.92
2022-08-20T19:13:21.220Z,22.67
2022-08-20T19:15:51.434Z,18.38
2022-08-20T19:18:23.126Z,26.95
2022-08-20T19:20:54.369Z,23.70
2022-08-20T19:23:24.943Z,23.77
2022-08-20T19:25:56.084Z,16.75
2022-08-20T19:28:26.331Z,20.20
2022-08-20T19:30:54.670Z,21.67
2022-08-20T19:33:31.419Z,19.90
2022-08-20T19:36:15.209Z,20.05
2022-08-20T19:38:44.769Z,22.77
2022-08-20T19:41:17.778Z,20.52
2022-08-20T19:43:59.235Z,25.40
2022-08-20T19:46:30.964Z,22.70
2022-08-20T19:49:07.910Z,24.60
2022-08-20T19:51:45.751Z,31.30
2022-08-20T19:54:21.147Z,25.17
2022-08-20T19:56:49.499Z,29.55
2022-08-20T19:59:20.780Z,29.33
2022-08-20T20:01:54.170Z,35.20
2022-08-20T20:04:24.128Z,28.80
2022-08-20T20:06:55.586Z,32.35
2022-08-20T20:09:26.211Z,30.42
2022-08-20T20:11:55.311Z,36.75
2022-08-20T20:14:25.701Z,35.92
2022-08-20T20:16:54.334Z,34.10
2022-08-20T20:19:26.686Z,30.52
2022-08-20T20:22:04.935Z,32.22
2022-08-20T20:24:41.000Z,32.78
2022-08-20T20:27:13.540Z,30.58
2022-08-20T20:29:48.413Z,30.27
2022-08-20T20:32:20.432Z,25.00
2022-08-20T20:34:55.358Z,27.48
2022-08-20T20:37:48.954Z,25.13
2022-08-20T20:40:23.387Z,27.30
2022-08-20T20:42:58.900Z,24.42
2022-08-20T20:45:32.382Z,25.67
2022-08-20T20:48:00.688Z,25.80
2022-08-20T20:50:31.111Z,29.25
2022-08-20T20:53:00.863Z,25.80
2022-08-20T20:55:30.306Z,26.25
2022-08-20T20:57:59.772Z,26.77
2022-08-20T21:00:32.601Z,25.48
2022-08-20T21:03:02.817Z,21.83
2022-08-20T21:05:33.568Z,24.40
2022-08-20T21:08:05.103Z,21.33
2022-08-20T21:10:34.890Z,24.73
2022-08-20T21:13:04.087Z,21.30
2022-08-20T21:15:32.929Z,23.08
2022-08-20T21:18:02.106Z,21.58
2022-08-20T21:20:30.706Z,21.98
2022-08-20T21:22:59.501Z,25.13
2022-08-20T21:25:30.224Z,21.80
2022-08-20T21:27:58.990Z,21.90
2022-08-20T21:30:27.493Z,25.38
2022-08-20T21:32:55.815Z,26.33
2022-08-20T21:35:24.474Z,27.30
2022-08-20T21:37:52.976Z,26.10
2022-08-20T21:40:21.804Z,26.70
2022-08-20T21:42:51.759Z,27.45
2022-08-20T21:45:20.320Z,25.17
2022-08-20T21:47:49.084Z,25.23
2022-08-20T21:50:18.824Z,28.13
2022-08-20T21:52:59.359Z,25.20
2022-08-20T21:55:29.116Z,29.67
2022-08-20T21:57:59.083Z,28.55
2022-08-20T22:00:46.564Z,26.95
2022-08-20T22:03:14.902Z,27.77
2022-08-20T22:05:43.243Z,25.13
2022-08-20T22:08:11.949Z,22.05
2022-08-20T22:10:40.316Z,21.15
2022-08-20T22:13:10.389Z,22.73
2022-08-20T22:15:39.779Z,21.13
2022-08-20T22:18:08.532Z,16.27
2022-08-20T22:20:37.092Z,18.83
2022-08-20T22:23:06.373Z,21.13
2022-08-20T22:25:35.233Z,21.80
2022-08-20T22:28:03.557Z,17.15
2022-08-20T22:30:33.451Z,21.52
2022-08-20T22:33:03.283Z,20.08
2022-08-20T22:35:32.081Z,16.48
2022-08-20T22:38:00.432Z,19.23
2022-08-20T22:40:29.021Z,20.83
2022-08-20T22:42:57.461Z,18.58
2022-08-20T22:45:25.959Z,20.65
2022-08-20T22:47:55.651Z,18.25
2022-08-20T22:50:25.205Z,26.65
2022-08-20T22:52:53.926Z,24.73
2022-08-20T22:55:22.398Z,21.63
2022-08-20T22:57:50.699Z,25.75
2022-08-20T23:00:20.336Z,25.17
2022-08-20T23:02:51.599Z,25.90
2022-08-20T23:05:22.986Z,29.13
2022-08-20T23:07:54.177Z,25.42
2022-08-20T23:10:23.077Z,26.15
2022-08-20T23:12:51.461Z,24.52
2022-08-20T23:15:19.890Z,21.75
2022-08-20T23:17:48.599Z,26.48
2022-08-20T23:20:18.624Z,25.38
2022-08-20T23:22:48.320Z,28.13
2022-08-20T23:25:16.686Z,22.15
2022-08-20T23:27:47.492Z,22.75
2022-08-20T23:30:16.563Z,28.65
2022-08-20T23:32:44.885Z,29.98
2022-08-20T23:35:13.329Z,28.30
2022-08-20T23:37:43.541Z,31.45
2022-08-20T23:40:14.291Z,29.00
2022-08-20T23:42:42.650Z,27.63
2022-08-20T23:45:11.610Z,27.25
2022-08-20T23:47:39.954Z,31.30
2022-08-20T23:50:09.718Z,26.50
2022-08-20T23:52:38.047Z,29.48
2022-08-20T23:55:07.098Z,30.45
2022-08-20T23:57:37.712Z,32.47
